Elbe, Washington
Current Conditions -  °F | °C
As of 6:58 AM on Thursday 30 Oct 2014 (Local Time) from KGRF Reporting Station
Light Rain Light Rain  
Wind Chill: 11°   Ceiling: 9000
Heat Index: 11°   Visibility: 10mi
Dew Point: 11°   Wind: 1mph
Humidity: 99%   Direction: 10°N
Pressure: 29.87"   Gusts: NA
Location:  46.76°N, 122.2°W
Report Text: KGRF 301358Z AUTO 01001KT 10SM -RA SCT080 BKN090 11/11 A2987 RMK AO2 DZB1312E1316 SLP119 P0000 T01140113 $
Loading
Personal Weather Stations






























Interactive Weather Map
Tropical Storm Tracking
New forecast layout! Learn more

10-Day Weather Forecast

Advertisements
Track Severe Weather on mobile